Time;durP1;ratioP1;P1;durP2;ratioP2;P2;SDS_P1;SDS_P2;PMS_P1;PMS_P2;Temp;Humidity;BMP_temperature;BMP_pressure;BME280_temperature;BME280_humidity;BME280_pressure;Samples;Min_cycle;Max_cycle;Signal;HPM_P1;HPM_P2
2021/07/02 00:00:20;;;;;;;20.00;11.98;;;;;;;14.55;71.98;100065.34;4997482;28;20030;-68
2021/07/02 00:02:46;;;;;;;19.90;12.65;;;;;;;14.53;72.10;100059.25;5013567;28;20128;-68
2021/07/02 00:05:12;;;;;;;23.63;13.00;;;;;;;14.53;72.05;100050.53;5015130;28;20037;-69
2021/07/02 00:07:38;;;;;;;19.33;13.40;;;;;;;14.53;71.99;100046.22;5014956;28;20038;-69
2021/07/02 00:10:05;;;;;;;20.88;13.30;;;;;;;14.51;72.14;100053.16;5014303;28;20061;-69
2021/07/02 00:12:32;;;;;;;19.15;13.07;;;;;;;14.51;72.10;100053.16;5013582;28;20046;-68
2021/07/02 00:14:58;;;;;;;20.15;12.13;;;;;;;14.50;72.12;100051.41;5014924;28;20034;-68
2021/07/02 00:17:24;;;;;;;19.92;12.80;;;;;;;14.49;72.16;100051.41;5014745;28;20038;-68
2021/07/02 00:19:49;;;;;;;20.73;12.50;;;;;;;14.49;72.16;100051.41;5014499;28;20405;-68
2021/07/02 00:22:15;;;;;;;22.73;13.88;;;;;;;14.46;71.86;100040.13;5014857;28;20072;-68
2021/07/02 00:24:40;;;;;;;26.90;13.32;;;;;;;14.46;71.73;100040.13;5013449;28;20040;-69
2021/07/02 00:27:06;;;;;;;19.50;12.65;;;;;;;14.46;71.58;100039.25;5015010;28;20042;-69
2021/07/02 00:29:31;;;;;;;19.20;12.80;;;;;;;14.46;71.88;100041.84;5014394;28;20441;-69
2021/07/02 00:31:57;;;;;;;22.23;13.25;;;;;;;14.45;71.89;100033.16;5014567;28;20034;-67
2021/07/02 00:34:23;;;;;;;16.50;12.20;;;;;;;14.45;71.97;100034.88;5013422;28;20509;-68
2021/07/02 00:36:48;;;;;;;19.40;12.80;;;;;;;14.44;72.31;100033.16;5014892;28;20030;-68
2021/07/02 00:39:14;;;;;;;18.40;12.25;;;;;;;14.43;71.87;100024.47;4997137;28;20041;-68
2021/07/02 00:41:39;;;;;;;21.67;12.18;;;;;;;14.43;72.02;100024.47;5014319;28;20121;-69
2021/07/02 00:44:05;;;;;;;19.83;13.02;;;;;;;14.42;71.89;100017.53;5012991;28;20068;-69
2021/07/02 00:46:30;;;;;;;24.75;14.00;;;;;;;14.43;72.07;100018.38;5014362;28;20477;-67
2021/07/02 00:48:56;;;;;;;27.50;14.48;;;;;;;14.43;71.89;100018.38;5012354;28;20497;-67
2021/07/02 00:51:21;;;;;;;29.35;14.40;;;;;;;14.40;71.92;100014.03;5014462;28;20038;-68
2021/07/02 00:53:48;;;;;;;33.42;16.63;;;;;;;14.41;71.84;100014.88;5013839;28;20026;-68
2021/07/02 00:56:19;;;;;;;27.33;14.52;;;;;;;14.40;71.79;100010.56;5012891;28;20520;-69
2021/07/02 00:58:45;;;;;;;30.67;15.43;;;;;;;14.40;72.13;100019.25;5014236;28;20374;-68
2021/07/02 01:01:16;;;;;;;30.67;14.98;;;;;;;14.42;71.63;100021.84;5014184;28;20474;-68
2021/07/02 01:03:47;;;;;;;31.60;17.38;;;;;;;14.40;72.00;100019.25;5014294;28;20037;-69
2021/07/02 01:06:14;;;;;;;29.73;16.10;;;;;;;14.40;71.70;100018.41;5014244;28;20125;-69
2021/07/02 01:08:43;;;;;;;34.30;16.20;;;;;;;14.38;71.84;100023.59;5014175;28;20124;-68
2021/07/02 01:11:10;;;;;;;25.10;14.63;;;;;;;14.40;72.01;100021.00;5013850;28;20034;-68
2021/07/02 01:13:35;;;;;;;28.40;15.45;;;;;;;14.40;71.78;100010.56;5013980;28;20524;-69
2021/07/02 01:16:01;;;;;;;26.92;14.55;;;;;;;14.40;71.79;100015.78;5013816;28;20045;-69
2021/07/02 01:18:26;;;;;;;30.20;16.70;;;;;;;14.39;71.79;100008.84;5013916;28;20030;-69
2021/07/02 01:20:54;;;;;;;29.15;15.38;;;;;;;14.38;71.97;100005.34;5012507;28;20038;-69
2021/07/02 01:23:20;;;;;;;28.20;16.40;;;;;;;14.37;71.87;100005.34;5014030;28;20033;-68
2021/07/02 01:25:46;;;;;;;24.95;13.32;;;;;;;14.37;71.74;100014.03;4996227;28;20044;-68
2021/07/02 01:28:13;;;;;;;37.28;17.30;;;;;;;14.37;71.77;100013.19;5013864;28;20120;-68
2021/07/02 01:30:40;;;;;;;31.10;15.88;;;;;;;14.37;72.00;100010.56;5012505;28;20034;-69
2021/07/02 01:33:06;;;;;;;38.08;17.92;;;;;;;14.37;71.66;100015.78;5012572;28;20034;-68
2021/07/02 01:35:31;;;;;;;31.85;16.95;;;;;;;14.36;71.74;100014.91;5012730;28;20045;-70
2021/07/02 01:37:57;;;;;;;42.97;19.30;;;;;;;14.36;71.73;100014.03;5013300;28;20088;-68
2021/07/02 01:40:22;;;;;;;34.72;17.15;;;;;;;14.35;71.90;100013.16;5012213;28;20515;-68
2021/07/02 01:42:47;;;;;;;33.88;16.40;;;;;;;14.35;71.68;100015.75;4995969;28;20501;-68
2021/07/02 01:45:13;;;;;;;39.72;17.02;;;;;;;14.36;71.84;100014.03;5013326;28;20413;-69
2021/07/02 01:47:39;;;;;;;33.45;17.40;;;;;;;14.35;71.96;100012.31;5013803;28;20374;-69
2021/07/02 01:50:06;;;;;;;31.52;17.13;;;;;;;14.35;71.89;100012.31;5013535;28;20049;-69
2021/07/02 01:52:31;;;;;;;31.52;15.63;;;;;;;14.34;71.99;100008.81;5013793;28;20045;-69
2021/07/02 01:54:56;;;;;;;39.60;16.85;;;;;;;14.34;71.60;100013.19;5013617;28;20441;-69
2021/07/02 01:57:24;;;;;;;31.45;15.93;;;;;;;14.33;71.60;100001.84;5013749;28;20117;-69
2021/07/02 01:59:50;;;;;;;28.52;16.45;;;;;;;14.33;71.90;100004.47;5013197;28;20044;-68
2021/07/02 02:02:16;;;;;;;26.73;15.10;;;;;;;14.34;71.62;100005.34;5016450;28;20136;-69
2021/07/02 02:04:41;;;;;;;33.03;15.93;;;;;;;14.32;71.76;100003.63;5017381;28;20125;-69
2021/07/02 02:07:07;;;;;;;32.28;16.83;;;;;;;14.31;71.75;100004.47;5016029;28;20044;-68
2021/07/02 02:09:33;;;;;;;29.00;16.08;;;;;;;14.31;71.63;100001.88;5017297;28;20069;-68
2021/07/02 02:11:58;;;;;;;37.60;18.52;;;;;;;14.31;71.93;100012.31;5017534;28;20096;-69
2021/07/02 02:14:24;;;;;;;30.80;17.17;;;;;;;14.31;71.88;100007.09;5016583;28;20096;-67
2021/07/02 02:16:49;;;;;;;27.90;16.13;;;;;;;14.32;71.56;100003.63;5016331;28;20061;-68
2021/07/02 02:19:15;;;;;;;28.20;15.93;;;;;;;14.31;71.83;99998.41;5016927;28;20037;-68
2021/07/02 02:21:41;;;;;;;32.08;16.33;;;;;;;14.31;71.75;99998.41;5016775;28;20084;-68
2021/07/02 02:24:06;;;;;;;24.45;15.10;;;;;;;14.29;72.08;100001.00;5016636;28;20481;-69
2021/07/02 02:26:31;;;;;;;29.52;16.17;;;;;;;14.30;71.80;100002.75;5016775;28;20034;-68
2021/07/02 02:28:57;;;;;;;30.90;16.70;;;;;;;14.30;71.82;100010.56;5015737;28;20045;-67
2021/07/02 02:31:23;;;;;;;25.98;15.48;;;;;;;14.29;71.68;99998.38;4999480;28;20034;-68
2021/07/02 02:33:48;;;;;;;29.27;16.25;;;;;;;14.28;71.81;100001.88;5016804;28;20037;-69
2021/07/02 02:36:14;;;;;;;27.38;16.20;;;;;;;14.29;71.57;99995.78;5016393;28;20065;-68
2021/07/02 02:38:39;;;;;;;30.70;15.35;;;;;;;14.29;71.96;100000.16;5015775;28;20045;-69
2021/07/02 02:41:05;;;;;;;22.13;15.23;;;;;;;14.28;71.79;99991.44;5016663;28;20052;-68
2021/07/02 02:43:30;;;;;;;25.05;15.10;;;;;;;14.27;71.76;99987.09;5016046;28;20520;-68
2021/07/02 02:45:56;;;;;;;27.17;17.48;;;;;;;14.26;71.83;99987.97;5015329;28;20033;-69
2021/07/02 02:48:21;;;;;;;24.42;14.90;;;;;;;14.28;71.78;99993.19;5015232;28;20042;-69
2021/07/02 02:50:47;;;;;;;30.88;16.27;;;;;;;14.25;71.76;99994.03;5016735;28;20029;-68
2021/07/02 02:53:12;;;;;;;26.27;15.25;;;;;;;14.25;71.91;99991.44;5016394;28;20065;-68
2021/07/02 02:55:38;;;;;;;32.50;17.65;;;;;;;14.26;71.77;99989.72;5016604;28;20034;-69
2021/07/02 02:58:03;;;;;;;25.77;15.82;;;;;;;14.25;71.80;99974.94;5016319;28;20551;-69
2021/07/02 03:00:29;;;;;;;25.40;15.18;;;;;;;14.25;71.66;99983.63;5014781;28;20194;-68
2021/07/02 03:02:54;;;;;;;25.48;15.35;;;;;;;14.23;71.57;99987.97;5015976;28;20072;-68
2021/07/02 03:05:22;;;;;;;27.75;15.02;;;;;;;14.24;71.65;99988.84;5014928;28;20080;-69
2021/07/02 03:07:47;;;;;;;22.52;14.68;;;;;;;14.24;71.80;99987.13;5016350;28;20038;-69
2021/07/02 03:10:13;;;;;;;28.70;15.77;;;;;;;14.24;71.76;99983.63;5016154;28;20037;-69
2021/07/02 03:12:38;;;;;;;25.77;15.27;;;;;;;14.22;71.60;99983.63;5015461;28;20037;-68
2021/07/02 03:15:05;;;;;;;24.00;14.70;;;;;;;14.23;71.68;99984.50;5015747;28;20041;-68
2021/07/02 03:17:31;;;;;;;23.67;15.80;;;;;;;14.23;71.63;99976.66;5015736;28;20375;-69
2021/07/02 03:19:57;;;;;;;27.52;15.65;;;;;;;14.24;71.85;99981.91;5015775;28;20041;-68
2021/07/02 03:22:22;;;;;;;27.58;16.08;;;;;;;14.24;71.63;99981.91;4998441;28;20030;-68
2021/07/02 03:24:48;;;;;;;24.27;15.77;;;;;;;14.24;71.76;99986.22;5014793;28;20097;-68
2021/07/02 03:27:13;;;;;;;30.70;15.82;;;;;;;14.23;71.91;99981.88;5015364;28;20588;-69
2021/07/02 03:29:39;;;;;;;27.48;15.38;;;;;;;14.24;71.86;99979.31;5014569;28;20037;-68
2021/07/02 03:32:07;;;;;;;28.67;14.68;;;;;;;14.24;71.65;99987.13;5014905;28;20038;-69
2021/07/02 03:34:33;;;;;;;22.13;15.68;;;;;;;14.25;71.78;99986.22;5014703;28;20468;-69
2021/07/02 03:36:58;;;;;;;25.45;15.15;;;;;;;14.25;71.86;99993.19;5015919;28;20065;-70
2021/07/02 03:39:24;;;;;;;21.42;14.90;;;;;;;14.24;71.93;99991.44;5015569;28;20041;-69
2021/07/02 03:41:49;;;;;;;29.15;17.40;;;;;;;14.24;71.92;99981.03;5015237;28;20422;-69
2021/07/02 03:44:15;;;;;;;27.55;15.88;;;;;;;14.24;71.67;99981.91;5015376;28;20124;-68
2021/07/02 03:46:40;;;;;;;26.85;15.70;;;;;;;14.22;71.80;99983.63;5015610;28;20029;-69
2021/07/02 03:49:06;;;;;;;29.30;16.50;;;;;;;14.22;71.83;99981.03;5015586;28;20030;-68
2021/07/02 03:51:31;;;;;;;23.92;15.23;;;;;;;14.23;71.90;99985.38;5015253;28;20068;-69
2021/07/02 03:53:57;;;;;;;23.48;15.18;;;;;;;14.24;71.58;99988.84;5015179;28;20080;-69
2021/07/02 03:56:22;;;;;;;22.20;13.75;;;;;;;14.23;71.80;99981.88;5013988;28;20544;-69
2021/07/02 03:58:48;;;;;;;24.48;15.15;;;;;;;14.23;71.71;99985.38;5015197;28;20490;-69
2021/07/02 04:01:13;;;;;;;22.40;14.80;;;;;;;14.23;71.83;100001.03;5013452;28;20129;-67
2021/07/02 04:03:39;;;;;;;27.50;16.00;;;;;;;14.22;71.88;100004.50;5015239;28;20034;-69
2021/07/02 04:06:04;;;;;;;25.42;13.73;;;;;;;14.21;71.76;100002.75;5013737;28;20504;-69
2021/07/02 04:08:30;;;;;;;22.95;15.02;;;;;;;14.19;71.60;99999.28;5013875;28;20398;-68
2021/07/02 04:10:55;;;;;;;25.02;15.98;;;;;;;14.19;72.05;99999.28;5014942;28;20053;-69
2021/07/02 04:13:22;;;;;;;28.55;14.82;;;;;;;14.20;71.45;99995.78;5014763;28;20053;-69
2021/07/02 04:15:48;;;;;;;22.70;14.50;;;;;;;14.19;71.95;100009.69;5014887;28;20038;-69
2021/07/02 04:18:14;;;;;;;26.75;15.95;;;;;;;14.19;71.83;99998.38;5013678;28;20420;-69
2021/07/02 04:20:41;;;;;;;24.65;15.13;;;;;;;14.18;71.89;100007.06;5013819;28;20088;-68
2021/07/02 04:23:07;;;;;;;22.95;14.73;;;;;;;14.19;71.85;100003.59;5013852;28;20037;-69
2021/07/02 04:25:33;;;;;;;22.42;14.52;;;;;;;14.16;71.94;100002.75;5013816;28;20041;-68
2021/07/02 04:27:58;;;;;;;26.08;14.35;;;;;;;14.16;71.92;100010.56;5014507;28;20034;-68
2021/07/02 04:30:23;;;;;;;26.35;14.73;;;;;;;14.16;71.63;100004.47;5014578;28;20493;-69
2021/07/02 04:32:49;;;;;;;26.85;14.38;;;;;;;14.16;71.81;100002.75;5014505;28;20037;-69
2021/07/02 04:35:15;;;;;;;18.55;13.38;;;;;;;14.15;72.00;100007.94;5014676;28;20046;-69
2021/07/02 04:37:41;;;;;;;23.40;14.13;;;;;;;14.15;71.77;100005.34;5014835;28;20038;-68
2021/07/02 04:40:09;;;;;;;21.23;14.32;;;;;;;14.15;71.80;100008.84;5014076;28;20041;-69
2021/07/02 04:42:35;;;;;;;20.63;13.65;;;;;;;14.17;72.11;100003.59;5014205;28;20060;-68
2021/07/02 04:45:01;;;;;;;22.27;14.13;;;;;;;14.18;71.96;100009.69;5013859;28;20498;-69
2021/07/02 04:47:27;;;;;;;20.70;14.05;;;;;;;14.16;71.86;100005.38;5014062;28;20121;-68
2021/07/02 04:49:52;;;;;;;20.65;13.82;;;;;;;14.16;71.70;100013.19;5014245;28;20080;-68
2021/07/02 04:52:18;;;;;;;25.27;14.80;;;;;;;14.19;71.91;100009.69;5014176;28;20124;-69
2021/07/02 04:54:44;;;;;;;21.40;13.43;;;;;;;14.17;71.71;100003.59;5014271;28;20033;-69
2021/07/02 04:57:09;;;;;;;22.65;14.80;;;;;;;14.18;71.86;99999.25;5012637;28;20065;-68
2021/07/02 04:59:39;;;;;;;20.88;14.70;;;;;;;14.18;71.85;100000.13;5013065;28;20084;-69
2021/07/02 05:02:06;;;;;;;20.20;13.40;;;;;;;14.19;72.17;99993.16;5013963;28;20475;-68
2021/07/02 05:04:32;;;;;;;18.65;13.85;;;;;;;14.19;71.80;99991.44;5014108;28;20034;-68
2021/07/02 05:06:58;;;;;;;19.75;13.13;;;;;;;14.21;71.92;99994.94;5012487;28;20128;-69
2021/07/02 05:09:23;;;;;;;19.65;13.13;;;;;;;14.20;71.76;99984.47;5013533;28;20033;-68
2021/07/02 05:11:49;;;;;;;25.00;14.25;;;;;;;14.21;71.22;99989.72;5014000;28;20034;-69
2021/07/02 05:14:14;;;;;;;21.73;12.93;;;;;;;14.21;71.70;99989.72;5012461;28;20401;-68
2021/07/02 05:16:40;;;;;;;20.98;13.05;;;;;;;14.21;71.89;99994.94;5012536;28;20084;-68
2021/07/02 05:19:06;;;;;;;26.63;12.93;;;;;;;14.22;71.75;99990.56;5014274;28;20037;-69
2021/07/02 05:21:31;;;;;;;23.52;14.18;;;;;;;14.22;71.94;100001.00;5012517;28;20482;-68
2021/07/02 05:23:57;;;;;;;25.80;12.38;;;;;;;14.22;71.95;99998.38;5012549;28;20558;-69
2021/07/02 05:26:22;;;;;;;21.85;13.27;;;;;;;14.24;72.00;100007.09;5012178;28;20553;-69
2021/07/02 05:28:48;;;;;;;20.67;12.93;;;;;;;14.24;72.05;100001.88;5013563;28;20037;-70
2021/07/02 05:31:15;;;;;;;22.10;13.73;;;;;;;14.23;71.83;100011.44;5013720;28;20042;-69
2021/07/02 05:33:41;;;;;;;21.25;12.20;;;;;;;14.24;71.85;100010.56;5012514;28;20037;-69
2021/07/02 05:36:07;;;;;;;22.38;12.68;;;;;;;14.23;72.12;100000.13;5012750;28;20053;-69
2021/07/02 05:38:32;;;;;;;27.73;12.73;;;;;;;14.24;72.01;100005.38;5013268;28;20037;-68
2021/07/02 05:40:58;;;;;;;22.42;13.00;;;;;;;14.25;71.81;100004.47;5013685;28;20096;-69
2021/07/02 05:43:24;;;;;;;17.77;12.93;;;;;;;14.25;72.14;100004.47;5012013;28;20080;-69
2021/07/02 05:45:50;;;;;;;21.25;12.55;;;;;;;14.26;72.02;100003.59;5013314;28;20068;-68
2021/07/02 05:48:20;;;;;;;19.85;12.00;;;;;;;14.26;72.15;100003.59;5013620;28;20049;-69
2021/07/02 05:50:47;;;;;;;24.27;12.15;;;;;;;14.26;71.85;100000.13;5013536;28;20049;-70
2021/07/02 05:53:14;;;;;;;19.88;12.70;;;;;;;14.28;72.01;100003.63;5013977;28;20042;-69
2021/07/02 05:55:39;;;;;;;22.38;11.85;;;;;;;14.29;71.94;100006.22;5012248;28;20037;-69
2021/07/02 05:58:05;;;;;;;23.38;13.00;;;;;;;14.29;71.83;100002.75;5013520;28;20516;-68
2021/07/02 06:00:31;;;;;;;19.42;11.88;;;;;;;14.29;72.32;100006.22;5012402;28;20080;-70
2021/07/02 06:02:56;;;;;;;20.65;11.75;;;;;;;14.30;71.74;100004.50;5013755;28;20053;-69
2021/07/02 06:05:22;;;;;;;19.35;11.98;;;;;;;14.29;72.03;100000.16;5013309;28;20030;-69
2021/07/02 06:07:51;;;;;;;18.63;11.73;;;;;;;14.31;71.82;100009.69;5013238;28;20045;-69
2021/07/02 06:10:19;;;;;;;21.40;11.75;;;;;;;14.31;72.04;100012.31;5012897;28;20030;-68
2021/07/02 06:12:46;;;;;;;17.77;11.15;;;;;;;14.31;72.17;100012.31;5013080;28;20066;-69
2021/07/02 06:15:13;;;;;;;18.25;10.70;;;;;;;14.32;72.02;100011.44;5013078;28;20129;-69
2021/07/02 06:17:39;;;;;;;18.55;11.38;;;;;;;14.34;72.08;100014.03;5012341;28;20041;-68
2021/07/02 06:20:06;;;;;;;19.02;11.85;;;;;;;14.34;72.01;100016.63;5012954;28;20104;-69
2021/07/02 06:22:31;;;;;;;18.58;11.27;;;;;;;14.35;72.00;100020.13;5012277;28;20038;-68
2021/07/02 06:24:57;;;;;;;22.15;11.32;;;;;;;14.35;72.04;100023.59;5013791;28;20056;-68
2021/07/02 06:27:22;;;;;;;22.73;11.25;;;;;;;14.35;71.82;100018.38;5013024;28;20388;-68
2021/07/02 06:29:48;;;;;;;19.30;11.18;;;;;;;14.38;71.87;100025.34;5013217;28;20030;-68
2021/07/02 06:32:13;;;;;;;22.77;11.30;;;;;;;14.37;71.98;100019.25;5012826;28;20040;-69
2021/07/02 06:34:39;;;;;;;20.38;10.68;;;;;;;14.39;72.03;100027.09;5012790;28;20066;-69
2021/07/02 06:37:04;;;;;;;14.32;10.00;;;;;;;14.38;72.05;100036.63;5013026;28;20397;-69
2021/07/02 06:39:30;;;;;;;15.95;10.75;;;;;;;14.40;72.10;100041.88;4993523;28;20109;-68
2021/07/02 06:41:56;;;;;;;19.60;11.00;;;;;;;14.40;72.25;100029.69;4991994;28;20413;-67
2021/07/02 06:44:21;;;;;;;16.73;9.93;;;;;;;14.41;72.05;100028.81;4993745;28;20070;-68
2021/07/02 06:46:47;;;;;;;21.35;10.63;;;;;;;14.40;72.06;100034.91;4995212;28;20092;-69
2021/07/02 06:49:13;;;;;;;15.80;10.82;;;;;;;14.42;72.00;100040.09;4995508;28;20061;-69
2021/07/02 06:51:38;;;;;;;19.35;10.35;;;;;;;14.43;72.13;100042.72;4997023;28;20065;-68
2021/07/02 06:54:04;;;;;;;15.27;10.07;;;;;;;14.41;72.58;100039.25;4995283;28;20049;-69
2021/07/02 06:56:31;;;;;;;16.55;10.63;;;;;;;14.41;72.17;100036.63;4994770;28;20034;-68
2021/07/02 06:58:57;;;;;;;19.42;11.15;;;;;;;14.43;72.21;100034.91;4994487;28;20033;-69
2021/07/02 07:01:23;;;;;;;22.20;12.10;;;;;;;14.44;72.24;100041.84;4995631;28;20038;-68
2021/07/02 07:03:49;;;;;;;18.45;10.77;;;;;;;14.45;71.94;100045.31;4996322;28;20133;-69
2021/07/02 07:06:15;;;;;;;18.80;11.35;;;;;;;14.44;72.13;100041.84;4996227;28;20117;-69
2021/07/02 07:08:41;;;;;;;17.92;11.10;;;;;;;14.44;72.44;100040.97;4996700;28;20038;-70
2021/07/02 07:11:06;;;;;;;19.83;11.45;;;;;;;14.45;72.41;100042.72;4996461;28;20046;-69
2021/07/02 07:13:32;;;;;;;21.17;10.82;;;;;;;14.45;72.23;100043.59;4996005;28;20521;-70
2021/07/02 07:15:57;;;;;;;18.42;10.48;;;;;;;14.48;72.16;100047.06;4996437;28;20034;-70
2021/07/02 07:18:23;;;;;;;21.48;11.85;;;;;;;14.49;72.29;100046.19;4996283;28;20130;-69
2021/07/02 07:20:49;;;;;;;13.23;10.02;;;;;;;14.49;72.09;100043.56;4996263;28;20490;-69
2021/07/02 07:23:14;;;;;;;13.80;10.50;;;;;;;14.52;72.24;100043.59;4996316;28;20038;-69
2021/07/02 07:25:40;;;;;;;17.13;11.25;;;;;;;14.52;72.18;100051.41;4995819;28;20046;-67
2021/07/02 07:28:05;;;;;;;20.65;11.38;;;;;;;14.53;72.25;100043.59;4994478;28;20121;-70
2021/07/02 07:30:31;;;;;;;16.85;10.60;;;;;;;14.54;72.31;100047.94;4995185;28;20093;-70
2021/07/02 07:32:57;;;;;;;14.63;10.88;;;;;;;14.56;72.08;100045.31;4996350;28;20045;-68
2021/07/02 07:37:55;;;;;;;15.52;10.70;;;;;;;14.57;72.11;100041.84;4995636;28;20434;-68
2021/07/02 07:40:23;;;;;;;20.73;11.32;;;;;;;14.58;72.36;100060.09;4995561;28;20108;-68
2021/07/02 07:42:49;;;;;;;14.75;11.45;;;;;;;14.58;71.84;100049.66;4994361;28;20076;-70
2021/07/02 07:45:15;;;;;;;15.85;11.75;;;;;;;14.60;72.46;100052.28;4995953;28;20042;-69
2021/07/02 07:47:41;;;;;;;21.05;11.80;;;;;;;14.61;72.39;100051.41;4994672;28;20026;-69
2021/07/02 07:50:09;;;;;;;14.50;10.93;;;;;;;14.62;72.33;100046.19;4996003;28;20547;-69
2021/07/02 07:52:46;;;;;;;21.02;12.07;;;;;;;14.62;72.20;100054.00;4978325;28;20030;-70
2021/07/02 07:55:12;;;;;;;18.92;12.20;;;;;;;14.65;72.43;100055.75;4995284;28;20069;-69
2021/07/02 07:57:38;;;;;;;19.45;12.98;;;;;;;14.66;72.16;100057.47;4994646;28;20065;-70
2021/07/02 08:00:05;;;;;;;17.00;12.13;;;;;;;14.66;72.27;100057.47;4994247;28;20133;-69
2021/07/02 08:02:30;;;;;;;16.50;12.23;;;;;;;14.68;72.06;100060.13;4995783;28;20054;-70
2021/07/02 08:04:56;;;;;;;18.73;13.40;;;;;;;14.68;72.16;100062.75;4995322;28;20389;-69
2021/07/02 08:07:22;;;;;;;19.00;11.98;;;;;;;14.69;72.29;100054.91;4995355;28;20046;-69
2021/07/02 08:09:47;;;;;;;15.80;11.77;;;;;;;14.69;72.17;100051.44;4977716;28;20489;-69
2021/07/02 08:12:13;;;;;;;18.63;12.73;;;;;;;14.70;72.45;100061.88;4994413;28;20037;-69
2021/07/02 08:14:38;;;;;;;18.48;12.68;;;;;;;14.71;72.32;100058.38;4995366;28;20038;-69
2021/07/02 08:17:04;;;;;;;20.50;13.35;;;;;;;14.73;72.29;100064.47;4994202;28;20039;-69
2021/07/02 08:19:29;;;;;;;16.98;12.35;;;;;;;14.74;72.15;100065.34;4995261;28;20101;-69
2021/07/02 08:21:55;;;;;;;21.27;13.35;;;;;;;14.75;71.84;100067.06;4994081;28;20486;-68
2021/07/02 08:24:20;;;;;;;17.65;13.02;;;;;;;14.74;72.34;100074.03;4977743;28;20564;-70
2021/07/02 08:26:48;;;;;;;20.13;13.85;;;;;;;14.76;72.33;100069.69;4993969;28;20057;-69
2021/07/02 08:29:23;;;;;;;21.02;13.05;;;;;;;14.77;72.36;100070.56;4995460;28;20085;-69
2021/07/02 08:31:50;;;;;;;18.00;14.38;;;;;;;14.78;72.30;100072.28;4994874;28;20031;-69
2021/07/02 08:34:15;;;;;;;22.95;14.85;;;;;;;14.77;72.23;100061.00;4994707;28;20062;-70
2021/07/02 08:36:41;;;;;;;26.40;14.90;;;;;;;14.80;72.24;100067.06;4993751;28;20474;-69
2021/07/02 08:39:06;;;;;;;23.42;14.52;;;;;;;14.81;72.24;100066.19;4994891;28;20045;-70
2021/07/02 08:41:33;;;;;;;23.40;15.23;;;;;;;14.82;72.16;100065.31;4993502;28;20065;-70
2021/07/02 08:43:59;;;;;;;17.48;13.25;;;;;;;14.83;72.12;100062.72;4993253;28;20105;-69
2021/07/02 08:46:25;;;;;;;22.48;14.63;;;;;;;14.84;72.34;100061.88;4993707;28;20034;-70
2021/07/02 08:48:51;;;;;;;23.27;14.52;;;;;;;14.86;72.27;100069.69;4994673;28;20053;-69
2021/07/02 08:51:18;;;;;;;21.20;14.23;;;;;;;14.88;72.18;100070.56;4993577;28;20157;-69
2021/07/02 08:53:44;;;;;;;22.63;13.23;;;;;;;14.91;72.36;100074.00;4994168;28;20045;-68
2021/07/02 08:56:09;;;;;;;23.70;14.98;;;;;;;14.92;72.30;100069.69;4994611;28;20034;-69
2021/07/02 08:58:36;;;;;;;22.48;15.07;;;;;;;14.94;72.30;100067.94;4993312;28;20045;-70
2021/07/02 09:01:07;;;;;;;20.40;13.85;;;;;;;14.95;72.14;100074.88;4994823;28;20088;-70
2021/07/02 09:03:42;;;;;;;17.05;13.18;;;;;;;14.96;72.08;100060.09;4975771;28;20045;-69
2021/07/02 09:06:08;;;;;;;24.42;15.73;;;;;;;14.99;72.06;100073.16;4993456;28;20035;-70
2021/07/02 09:08:34;;;;;;;21.02;14.82;;;;;;;14.99;72.34;100068.78;4994060;28;20030;-70
2021/07/02 09:11:00;;;;;;;22.23;14.95;;;;;;;15.01;72.03;100072.25;4993210;28;20038;-69
2021/07/02 09:13:42;;;;;;;19.30;13.95;;;;;;;15.02;72.23;100070.53;4994536;28;20045;-69
2021/07/02 09:16:31;;;;;;;22.88;15.40;;;;;;;15.02;72.17;100071.41;4993288;28;20116;-69
2021/07/02 09:18:57;;;;;;;19.98;14.05;;;;;;;15.04;72.18;100074.00;4993360;28;20124;-70
2021/07/02 09:21:32;;;;;;;23.40;14.10;;;;;;;15.03;72.21;100073.13;4993249;28;20074;-69
2021/07/02 09:24:00;;;;;;;20.23;15.57;;;;;;;15.05;72.23;100073.13;4993267;28;20088;-69
2021/07/02 09:26:39;;;;;;;22.90;16.00;;;;;;;15.06;72.25;100061.81;4994096;28;20128;-70
2021/07/02 09:29:23;;;;;;;23.20;15.15;;;;;;;15.07;72.14;100068.78;4994293;28;20042;-69
2021/07/02 09:32:03;;;;;;;23.85;15.35;;;;;;;15.09;72.06;100074.00;4992727;28;20453;-69
2021/07/02 09:34:49;;;;;;;21.63;16.30;;;;;;;15.09;72.24;100071.41;4993048;28;20383;-69
2021/07/02 09:37:25;;;;;;;22.98;16.92;;;;;;;15.11;72.25;100072.22;4992756;28;20037;-69
2021/07/02 09:39:51;;;;;;;24.40;17.08;;;;;;;15.12;72.35;100071.38;4992814;28;20076;-69
2021/07/02 09:42:27;;;;;;;22.90;16.08;;;;;;;15.14;72.41;100083.56;4992811;28;20065;-70
2021/07/02 09:45:16;;;;;;;23.67;16.98;;;;;;;15.15;72.27;100080.09;4976957;28;20031;-70
2021/07/02 09:47:46;;;;;;;20.65;15.23;;;;;;;15.18;72.22;100080.03;4993462;28;20073;-70
2021/07/02 09:50:27;;;;;;;22.30;16.60;;;;;;;15.21;72.23;100082.66;4976739;28;20037;-69
2021/07/02 09:53:06;;;;;;;22.38;16.42;;;;;;;15.22;72.10;100087.00;4993426;28;20050;-70
2021/07/02 09:55:43;;;;;;;24.30;16.23;;;;;;;15.23;72.45;100096.56;4993511;28;20089;-69
2021/07/02 09:58:12;;;;;;;22.45;17.27;;;;;;;15.26;72.23;100085.25;4993938;28;20041;-69
2021/07/02 10:00:59;;;;;;;22.20;15.43;;;;;;;15.26;72.24;100095.69;4993133;28;20034;-68
2021/07/02 10:03:32;;;;;;;21.52;16.92;;;;;;;15.26;72.23;100093.06;4993726;28;20047;-70
2021/07/02 10:06:02;;;;;;;22.77;16.77;;;;;;;15.27;72.41;100087.00;4992921;28;20042;-71
2021/07/02 10:08:35;;;;;;;19.92;15.73;;;;;;;15.27;72.12;100092.22;4992631;28;20100;-70
2021/07/02 10:11:03;;;;;;;22.00;15.90;;;;;;;15.28;72.28;100091.34;4976438;28;20506;-69
2021/07/02 10:13:37;;;;;;;24.63;17.45;;;;;;;15.29;72.18;100097.44;4992868;28;20039;-70
2021/07/02 10:16:06;;;;;;;22.70;16.88;;;;;;;15.31;72.54;100098.31;4993021;28;20030;-68
2021/07/02 10:18:33;;;;;;;25.08;15.95;;;;;;;15.32;72.39;100098.31;4976169;28;20043;-70
2021/07/02 10:21:00;;;;;;;20.95;15.93;;;;;;;15.34;72.42;100098.28;4994128;28;20125;-71
2021/07/02 10:23:31;;;;;;;22.77;16.90;;;;;;;15.36;72.25;100096.53;4996303;28;20045;-70
2021/07/02 10:25:57;;;;;;;21.25;15.70;;;;;;;15.37;72.46;100100.91;4997639;28;20038;-70
2021/07/02 10:28:30;;;;;;;20.52;15.30;;;;;;;15.39;72.15;100101.75;4996505;28;20038;-69
2021/07/02 10:30:56;;;;;;;25.13;15.43;;;;;;;15.41;72.35;100105.25;4997151;28;20030;-70
2021/07/02 10:33:27;;;;;;;22.13;15.10;;;;;;;15.41;72.09;100092.19;4997141;28;20043;-70
2021/07/02 10:35:56;;;;;;;23.63;15.23;;;;;;;15.41;72.17;100096.56;4997437;28;20043;-69
2021/07/02 10:38:22;;;;;;;21.80;15.32;;;;;;;15.42;72.13;100099.16;4995984;28;20038;-70
2021/07/02 10:40:47;;;;;;;21.17;15.73;;;;;;;15.44;72.31;100094.78;4997087;28;20128;-69
2021/07/02 10:43:18;;;;;;;20.25;15.80;;;;;;;15.45;72.34;100091.31;4996954;28;20034;-70
2021/07/02 10:46:23;;;;;;;21.02;14.75;;;;;;;15.46;72.05;100090.44;4996038;28;20092;-70
2021/07/02 10:48:48;;;;;;;22.23;16.13;;;;;;;15.45;72.15;100086.09;4995860;28;20038;-70
2021/07/02 10:51:32;;;;;;;22.73;16.27;;;;;;;15.47;72.31;100097.41;4996122;28;20034;-69
2021/07/02 10:54:13;;;;;;;20.80;15.52;;;;;;;15.49;72.39;100086.94;4995787;28;20058;-70
2021/07/02 10:56:43;;;;;;;21.08;13.55;;;;;;;15.51;72.44;100091.28;4996751;28;20041;-69
2021/07/02 10:59:09;;;;;;;20.38;15.23;;;;;;;15.52;72.36;100085.19;4995075;28;20046;-69
2021/07/02 11:01:35;;;;;;;20.88;14.68;;;;;;;15.57;72.39;100089.53;4995534;28;20030;-70
2021/07/02 11:04:31;;;;;;;20.92;15.10;;;;;;;15.57;72.38;100085.16;4995185;28;20058;-70
2021/07/02 11:06:56;;;;;;;25.33;15.55;;;;;;;15.59;72.31;100088.63;4992541;28;20085;-70
2021/07/02 11:09:59;;;;;;;21.83;15.15;;;;;;;15.61;72.20;100091.25;4995320;28;20062;-70
2021/07/02 11:12:56;;;;;;;24.48;13.95;;;;;;;15.61;72.16;100094.72;4996734;28;20038;-71
2021/07/02 11:15:22;;;;;;;18.65;14.02;;;;;;;15.61;72.20;100092.09;4995212;28;20397;-70